createdAt,value
2022-10-06T00:00:54.927Z,70.88
2022-10-06T00:03:25.599Z,69.41
2022-10-06T00:05:52.115Z,70.79
2022-10-06T00:08:19.418Z,71.39
2022-10-06T00:10:46.057Z,71.18
2022-10-06T00:13:12.590Z,70.96
2022-10-06T00:15:39.734Z,73.16
2022-10-06T00:18:06.685Z,77.59
2022-10-06T00:20:33.324Z,80.48
2022-10-06T00:22:59.839Z,82.92
2022-10-06T00:25:28.163Z,85.46
2022-10-06T00:27:55.157Z,89.56
2022-10-06T00:30:24.942Z,92.07
2022-10-06T00:32:58.894Z,92.82
2022-10-06T00:35:28.841Z,93.78
2022-10-06T00:37:55.740Z,94.33
2022-10-06T00:40:22.490Z,95.65
2022-10-06T00:43:01.934Z,95.31
2022-10-06T00:45:39.994Z,96.78
2022-10-06T00:48:26.963Z,97.08
2022-10-06T00:50:57.897Z,96.91
2022-10-06T00:53:27.780Z,95.84
2022-10-06T00:55:54.517Z,95.83
2022-10-06T00:58:21.465Z,95.59
2022-10-06T01:00:54.063Z,95.24
2022-10-06T01:03:35.828Z,95.07
2022-10-06T01:06:04.066Z,94.11
2022-10-06T01:08:32.930Z,92.94
2022-10-06T01:10:59.909Z,92.68
2022-10-06T01:13:30.354Z,92.93
2022-10-06T01:16:10.178Z,92.62
2022-10-06T01:18:41.043Z,92.15
2022-10-06T01:21:15.728Z,92.35
2022-10-06T01:23:42.389Z,91.84
2022-10-06T01:26:11.362Z,90.72
2022-10-06T01:28:39.370Z,90.97
2022-10-06T01:31:08.311Z,90.95
2022-10-06T01:33:35.349Z,91.06
2022-10-06T01:36:03.135Z,90.22
2022-10-06T01:38:29.856Z,89.81
2022-10-06T01:41:02.191Z,90.09
2022-10-06T01:43:29.434Z,90.44
2022-10-06T01:45:57.633Z,90.26
2022-10-06T01:48:26.447Z,89.84
2022-10-06T01:50:55.499Z,90.29
2022-10-06T01:53:22.743Z,90.07
2022-10-06T01:55:49.164Z,89.95
2022-10-06T01:58:20.184Z,89.39
2022-10-06T02:00:47.746Z,90.10
2022-10-06T02:03:14.618Z,89.66
2022-10-06T02:05:41.722Z,89.01
2022-10-06T02:08:09.731Z,89.39
2022-10-06T02:10:36.620Z,88.86
2022-10-06T02:13:07.342Z,88.97
2022-10-06T02:15:35.505Z,88.36
2022-10-06T02:18:04.231Z,89.29
2022-10-06T02:20:30.751Z,89.55
2022-10-06T02:22:57.319Z,88.63
2022-10-06T02:25:23.761Z,89.20
2022-10-06T02:27:51.344Z,89.33
2022-10-06T02:30:17.842Z,89.04
2022-10-06T02:32:46.101Z,88.87
2022-10-06T02:35:13.154Z,89.03
2022-10-06T02:37:41.586Z,89.67
2022-10-06T02:40:10.691Z,89.81
2022-10-06T02:42:38.159Z,90.14
2022-10-06T02:45:06.915Z,89.47
2022-10-06T02:47:35.208Z,89.79
2022-10-06T02:50:05.416Z,89.12
2022-10-06T02:52:42.614Z,89.17
2022-10-06T02:55:10.430Z,89.73
2022-10-06T02:57:37.094Z,90.60
2022-10-06T03:00:07.520Z,90.32
2022-10-06T03:02:34.602Z,90.18
2022-10-06T03:05:01.972Z,89.15
2022-10-06T03:07:29.207Z,88.92
2022-10-06T03:09:56.583Z,89.07
2022-10-06T03:12:24.886Z,89.77
2022-10-06T03:14:52.002Z,89.68
2022-10-06T03:17:19.413Z,89.73
2022-10-06T03:19:51.327Z,90.05
2022-10-06T03:22:18.506Z,89.80
2022-10-06T03:24:50.563Z,89.55
2022-10-06T03:27:17.014Z,89.36
2022-10-06T03:29:43.481Z,89.55
2022-10-06T03:32:10.002Z,89.55
2022-10-06T03:34:37.615Z,89.82
2022-10-06T03:37:07.621Z,89.69
2022-10-06T03:39:34.221Z,89.39
2022-10-06T03:42:01.421Z,88.91
2022-10-06T03:44:33.267Z,88.97
2022-10-06T03:46:59.819Z,89.42
2022-10-06T03:49:26.770Z,90.00
2022-10-06T03:51:53.762Z,89.36
2022-10-06T03:54:26.636Z,89.16
2022-10-06T03:56:53.507Z,89.10
2022-10-06T03:59:20.183Z,88.40
2022-10-06T04:01:48.946Z,88.55
2022-10-06T04:04:26.650Z,88.35
2022-10-06T04:06:58.389Z,88.33
2022-10-06T04:09:26.481Z,87.99
2022-10-06T04:11:52.938Z,87.54
2022-10-06T04:14:20.373Z,87.14
2022-10-06T04:16:50.427Z,87.17
2022-10-06T04:19:22.279Z,86.58
2022-10-06T04:21:51.630Z,86.12
2022-10-06T04:24:22.417Z,86.07
2022-10-06T04:26:49.959Z,85.67
2022-10-06T04:29:18.119Z,84.68
2022-10-06T04:31:48.243Z,84.96
2022-10-06T04:34:32.369Z,84.83
2022-10-06T04:36:58.913Z,84.85
2022-10-06T04:39:33.455Z,84.87
2022-10-06T04:42:00.716Z,85.15
2022-10-06T04:44:30.387Z,85.45
2022-10-06T04:47:02.995Z,85.21
2022-10-06T04:49:30.308Z,84.44
2022-10-06T04:51:56.794Z,84.51
2022-10-06T04:54:25.016Z,84.15
2022-10-06T04:56:58.153Z,84.51
2022-10-06T04:59:46.523Z,84.79
2022-10-06T05:02:15.719Z,84.90
2022-10-06T05:04:43.560Z,85.20
2022-10-06T05:07:10.562Z,84.79
2022-10-06T05:09:37.137Z,84.71
2022-10-06T05:12:03.967Z,85.05
2022-10-06T05:14:37.109Z,85.49
2022-10-06T05:17:04.316Z,84.46
2022-10-06T05:19:32.306Z,84.15
2022-10-06T05:21:58.905Z,82.72
2022-10-06T05:24:29.383Z,81.63
2022-10-06T05:27:00.839Z,82.23
2022-10-06T05:29:28.887Z,82.27
2022-10-06T05:31:55.609Z,81.84
2022-10-06T05:34:22.603Z,81.72
2022-10-06T05:36:49.085Z,81.85
2022-10-06T05:39:15.585Z,81.60
2022-10-06T05:41:49.077Z,82.09
2022-10-06T05:44:15.663Z,82.59
2022-10-06T05:46:43.681Z,82.91
2022-10-06T05:49:11.426Z,82.93
2022-10-06T05:51:41.890Z,83.27
2022-10-06T05:54:14.410Z,83.11
2022-10-06T05:56:41.247Z,83.71
2022-10-06T05:59:07.801Z,84.38
2022-10-06T06:01:40.161Z,84.56
2022-10-06T06:04:13.914Z,84.61
2022-10-06T06:06:46.645Z,85.57
2022-10-06T06:09:21.724Z,85.68
2022-10-06T06:11:52.898Z,85.37
2022-10-06T06:14:45.429Z,85.16
2022-10-06T06:17:19.675Z,85.86
2022-10-06T06:19:46.428Z,85.64
2022-10-06T06:22:13.186Z,85.20
2022-10-06T06:24:42.486Z,85.31
2022-10-06T06:27:10.140Z,85.10
2022-10-06T06:29:37.506Z,84.71
2022-10-06T06:32:10.698Z,84.32
2022-10-06T06:34:37.338Z,84.47
2022-10-06T06:37:08.425Z,85.08
2022-10-06T06:39:37.211Z,85.02
2022-10-06T06:42:08.419Z,85.08
2022-10-06T06:44:55.384Z,86.01
2022-10-06T06:47:30.456Z,85.51
2022-10-06T06:50:00.112Z,86.13
2022-10-06T06:52:31.256Z,85.96
2022-10-06T06:54:59.406Z,85.93
2022-10-06T06:57:27.732Z,85.78
2022-10-06T06:59:56.982Z,85.82
2022-10-06T07:02:26.453Z,85.60
2022-10-06T07:04:52.999Z,85.71
2022-10-06T07:07:20.912Z,85.13
2022-10-06T07:09:47.571Z,86.07
2022-10-06T07:12:15.660Z,85.41
2022-10-06T07:15:05.757Z,85.40
2022-10-06T07:17:56.581Z,85.36
2022-10-06T07:20:42.042Z,84.54
2022-10-06T07:23:35.635Z,84.26
2022-10-06T07:26:04.345Z,83.81
2022-10-06T07:28:30.915Z,84.29
2022-10-06T07:31:00.591Z,83.50
2022-10-06T07:33:32.041Z,83.43
2022-10-06T07:36:00.520Z,83.03
2022-10-06T07:38:29.709Z,81.78
2022-10-06T07:41:18.505Z,81.08
2022-10-06T07:43:47.242Z,81.21
2022-10-06T07:46:15.401Z,81.14
2022-10-06T07:48:48.737Z,81.36
2022-10-06T07:51:20.066Z,79.14
2022-10-06T07:53:50.812Z,78.36
2022-10-06T07:56:30.034Z,78.09
2022-10-06T07:58:58.566Z,77.72
2022-10-06T08:01:27.588Z,77.61
2022-10-06T08:03:54.134Z,77.61
2022-10-06T08:06:20.713Z,77.53
2022-10-06T08:08:52.483Z,76.17
2022-10-06T08:11:20.685Z,76.83
2022-10-06T08:13:48.297Z,76.23
2022-10-06T08:16:17.982Z,75.14
2022-10-06T08:18:53.291Z,74.70
2022-10-06T08:21:31.631Z,75.07
2022-10-06T08:23:59.426Z,75.29
2022-10-06T08:26:27.744Z,74.61
2022-10-06T08:29:00.330Z,73.23
2022-10-06T08:31:27.841Z,73.80
2022-10-06T08:33:56.697Z,74.04
2022-10-06T08:36:31.056Z,73.54
2022-10-06T08:39:27.867Z,73.07
2022-10-06T08:41:55.813Z,73.40
2022-10-06T08:44:40.859Z,72.50
2022-10-06T08:47:17.654Z,72.44
2022-10-06T08:49:47.154Z,70.63
2022-10-06T08:52:46.139Z,71.86
2022-10-06T08:55:28.699Z,70.44
2022-10-06T08:57:58.393Z,70.19
2022-10-06T09:00:25.411Z,71.10
2022-10-06T09:02:52.037Z,71.05
2022-10-06T09:05:26.541Z,70.70
2022-10-06T09:08:05.578Z,69.62
2022-10-06T09:11:03.382Z,70.29
2022-10-06T09:13:42.167Z,70.13
2022-10-06T09:16:13.757Z,70.59
2022-10-06T09:19:07.171Z,69.56
2022-10-06T09:21:41.912Z,69.11
2022-10-06T09:24:15.321Z,69.12
2022-10-06T09:26:44.975Z,69.27
2022-10-06T09:29:12.627Z,68.78
2022-10-06T09:31:42.776Z,68.06
2022-10-06T09:34:24.891Z,68.88
2022-10-06T09:37:05.103Z,67.44
2022-10-06T09:39:37.543Z,67.53
2022-10-06T09:42:21.027Z,65.51
2022-10-06T09:44:51.193Z,65.89
2022-10-06T09:47:40.760Z,66.40
2022-10-06T09:50:16.304Z,67.20
2022-10-06T09:52:58.267Z,65.60
2022-10-06T09:55:28.758Z,64.46
2022-10-06T09:57:57.566Z,64.26
2022-10-06T10:00:36.880Z,63.76
2022-10-06T10:03:11.640Z,64.09
2022-10-06T10:05:46.228Z,63.87
2022-10-06T10:08:12.691Z,63.91
2022-10-06T10:10:40.125Z,62.36
2022-10-06T10:13:25.350Z,61.55
2022-10-06T10:15:56.462Z,60.65
2022-10-06T10:18:27.620Z,60.11
2022-10-06T10:21:06.272Z,58.60
2022-10-06T10:23:55.218Z,57.84
2022-10-06T10:26:30.821Z,58.13
2022-10-06T10:29:10.921Z,57.94
2022-10-06T10:32:12.214Z,56.55
2022-10-06T10:34:50.907Z,57.31
2022-10-06T10:37:25.706Z,57.81
2022-10-06T10:40:00.633Z,56.86
2022-10-06T10:42:37.341Z,56.03
2022-10-06T10:45:11.923Z,56.39
2022-10-06T10:47:41.722Z,55.97
2022-10-06T10:50:24.571Z,57.16
2022-10-06T10:52:56.558Z,55.46
2022-10-06T10:55:39.678Z,54.44
2022-10-06T10:58:35.308Z,54.70
2022-10-06T11:01:42.115Z,56.62
2022-10-06T11:04:13.825Z,56.84
2022-10-06T11:07:02.022Z,56.68
2022-10-06T11:09:36.033Z,56.37
2022-10-06T11:12:17.043Z,56.67
2022-10-06T11:15:20.947Z,57.40
2022-10-06T11:17:50.410Z,58.04
2022-10-06T11:20:51.958Z,57.67
2022-10-06T11:23:30.384Z,56.85
2022-10-06T11:26:26.294Z,56.68
2022-10-06T11:29:19.323Z,55.69
2022-10-06T11:32:10.158Z,56.12
2022-10-06T11:34:37.227Z,55.66
2022-10-06T11:37:33.460Z,55.90
2022-10-06T11:40:28.055Z,55.01
2022-10-06T11:43:06.187Z,54.27
2022-10-06T11:46:02.826Z,55.49
2022-10-06T11:48:31.367Z,55.54
2022-10-06T11:51:17.160Z,54.32
2022-10-06T11:53:44.807Z,54.46
2022-10-06T11:56:17.457Z,55.03
2022-10-06T11:58:56.330Z,54.25
2022-10-06T12:01:32.766Z,54.06
2022-10-06T12:04:08.673Z,54.13
2022-10-06T12:06:47.397Z,55.09
2022-10-06T12:09:26.291Z,55.40
2022-10-06T12:11:54.797Z,53.63
2022-10-06T12:17:26.415Z,52.44
2022-10-06T12:20:11.107Z,52.46
2022-10-06T12:22:52.358Z,52.76
2022-10-06T12:25:58.787Z,51.95
2022-10-06T12:28:53.012Z,51.72
2022-10-06T12:31:44.781Z,50.27
2022-10-06T12:34:39.385Z,50.42
2022-10-06T12:37:42.992Z,49.80
2022-10-06T12:40:40.708Z,49.15
2022-10-06T12:43:19.050Z,49.66
2022-10-06T12:45:59.976Z,48.96
2022-10-06T12:48:41.346Z,49.15
2022-10-06T12:51:07.916Z,49.11
2022-10-06T12:53:45.473Z,48.78
2022-10-06T12:56:42.501Z,48.97
2022-10-06T12:59:32.229Z,48.63
2022-10-06T13:02:01.219Z,48.51
2022-10-06T13:04:36.932Z,48.68
2022-10-06T13:07:19.827Z,48.13
2022-10-06T13:09:49.966Z,48.39
2022-10-06T13:12:32.086Z,49.19
2022-10-06T13:15:24.396Z,47.60
2022-10-06T13:17:56.884Z,48.99
2022-10-06T13:20:49.206Z,48.84
2022-10-06T13:23:33.484Z,48.64
2022-10-06T13:26:04.298Z,48.05
2022-10-06T13:28:37.011Z,48.16
2022-10-06T13:31:18.386Z,48.02
2022-10-06T13:33:46.947Z,48.60
2022-10-06T13:36:13.834Z,49.20
2022-10-06T13:38:41.955Z,48.15
2022-10-06T13:41:11.370Z,47.52
2022-10-06T13:43:42.273Z,47.30
2022-10-06T13:46:12.640Z,46.64
2022-10-06T13:48:49.718Z,47.08
2022-10-06T13:51:26.214Z,47.41
2022-10-06T13:53:53.010Z,48.16
2022-10-06T13:56:38.584Z,48.81
2022-10-06T13:59:30.936Z,48.91
2022-10-06T14:02:18.951Z,49.40
2022-10-06T14:05:26.381Z,49.41
2022-10-06T14:07:59.566Z,48.99
2022-10-06T14:10:31.839Z,49.39
2022-10-06T14:13:01.319Z,48.08
2022-10-06T14:15:45.267Z,48.18
2022-10-06T14:18:33.610Z,49.00
2022-10-06T14:21:17.332Z,48.72
2022-10-06T14:23:54.068Z,48.48
2022-10-06T14:26:29.743Z,49.39
2022-10-06T14:28:57.088Z,49.71
2022-10-06T14:31:25.991Z,49.90
2022-10-06T14:33:54.492Z,48.94
2022-10-06T14:36:29.318Z,48.76
2022-10-06T14:38:58.059Z,48.79
2022-10-06T14:41:27.949Z,48.55
2022-10-06T14:43:56.370Z,49.16
2022-10-06T14:46:25.246Z,49.03
2022-10-06T14:48:52.179Z,49.44
2022-10-06T14:51:19.666Z,49.99
2022-10-06T14:53:53.958Z,50.09
2022-10-06T14:56:23.001Z,48.81
2022-10-06T14:58:50.254Z,49.10
2022-10-06T15:01:19.271Z,49.45
2022-10-06T15:03:56.919Z,49.20
2022-10-06T15:06:42.539Z,49.86
2022-10-06T15:09:09.345Z,49.49
2022-10-06T15:11:36.967Z,49.42
2022-10-06T15:14:04.492Z,49.68
2022-10-06T15:16:32.987Z,50.09
2022-10-06T15:19:00.573Z,49.98
2022-10-06T15:21:27.696Z,50.77
2022-10-06T15:24:02.831Z,50.76
2022-10-06T15:26:49.213Z,50.70
2022-10-06T15:29:16.275Z,50.76
2022-10-06T15:31:45.034Z,50.37
2022-10-06T15:34:14.064Z,50.95
2022-10-06T15:36:42.459Z,50.49
2022-10-06T15:39:11.091Z,50.27
2022-10-06T15:41:39.768Z,50.38
2022-10-06T15:44:08.510Z,50.22
2022-10-06T15:46:47.231Z,50.52
2022-10-06T15:49:16.181Z,51.22
2022-10-06T15:51:48.687Z,51.56
2022-10-06T15:54:26.296Z,52.00
2022-10-06T15:56:54.895Z,52.50
2022-10-06T15:59:25.542Z,52.63
2022-10-06T16:01:56.669Z,52.69
2022-10-06T16:04:35.409Z,53.32
2022-10-06T16:07:06.102Z,53.35
2022-10-06T16:09:39.296Z,52.97
2022-10-06T16:12:11.196Z,53.62
2022-10-06T16:14:38.273Z,54.07
2022-10-06T16:17:06.484Z,54.45
2022-10-06T16:19:33.579Z,54.64
2022-10-06T16:22:00.876Z,55.71
2022-10-06T16:24:28.887Z,55.25
2022-10-06T16:26:57.818Z,55.29
2022-10-06T16:29:24.553Z,56.02
2022-10-06T16:31:51.123Z,56.35
2022-10-06T16:34:18.749Z,56.50
2022-10-06T16:36:45.826Z,56.80
2022-10-06T16:39:15.059Z,56.87
2022-10-06T16:41:42.119Z,57.45
2022-10-06T16:44:08.967Z,57.27
2022-10-06T16:46:35.832Z,57.91
2022-10-06T16:49:03.573Z,58.55
2022-10-06T16:51:32.774Z,58.83
2022-10-06T16:54:04.650Z,59.43
2022-10-06T16:56:42.428Z,59.65
2022-10-06T16:59:15.266Z,60.12
2022-10-06T17:01:42.646Z,60.20
2022-10-06T17:04:17.904Z,60.13
2022-10-06T17:06:57.269Z,60.58
2022-10-06T17:09:26.172Z,61.03
2022-10-06T17:11:54.012Z,61.55
2022-10-06T17:14:21.540Z,61.39
2022-10-06T17:16:50.727Z,61.67
2022-10-06T17:19:19.024Z,62.17
2022-10-06T17:21:48.050Z,62.07
2022-10-06T17:24:20.155Z,62.13
2022-10-06T17:26:49.206Z,63.08
2022-10-06T17:29:18.965Z,63.26
2022-10-06T17:31:46.655Z,63.35
2022-10-06T17:34:20.055Z,63.17
2022-10-06T17:36:50.600Z,63.85
2022-10-06T17:39:20.384Z,64.13
2022-10-06T17:41:48.102Z,63.81
2022-10-06T17:44:21.170Z,64.49
2022-10-06T17:46:49.625Z,64.46
2022-10-06T17:49:20.470Z,64.83
2022-10-06T17:51:47.846Z,64.75
2022-10-06T17:54:18.036Z,65.24
2022-10-06T17:56:45.970Z,65.77
2022-10-06T17:59:19.987Z,65.99
2022-10-06T18:01:46.622Z,65.85
2022-10-06T18:04:16.104Z,66.42
2022-10-06T18:06:44.366Z,66.09
2022-10-06T18:09:11.767Z,66.64
2022-10-06T18:11:39.807Z,66.38
2022-10-06T18:14:16.368Z,67.26
2022-10-06T18:16:45.136Z,66.94
2022-10-06T18:19:21.179Z,67.76
2022-10-06T18:21:48.244Z,67.81
2022-10-06T18:24:21.008Z,67.99
2022-10-06T18:26:52.919Z,68.37
2022-10-06T18:29:21.942Z,68.65
2022-10-06T18:31:49.926Z,68.13
2022-10-06T18:37:04.444Z,68.50
2022-10-06T18:39:32.055Z,69.09
2022-10-06T18:42:02.472Z,69.17
2022-10-06T18:44:48.535Z,69.06
2022-10-06T18:47:33.547Z,68.99
2022-10-06T18:50:00.046Z,69.15
2022-10-06T18:52:26.737Z,69.45
2022-10-06T18:54:53.166Z,69.77
2022-10-06T18:57:22.661Z,69.99
2022-10-06T18:59:51.685Z,70.57
2022-10-06T19:02:18.214Z,71.11
2022-10-06T19:04:44.819Z,71.66
2022-10-06T19:07:11.279Z,71.81
2022-10-06T19:09:39.705Z,71.72
2022-10-06T19:12:07.971Z,71.61
2022-10-06T19:14:37.716Z,71.16
2022-10-06T19:17:14.743Z,71.23
2022-10-06T19:19:51.015Z,71.16
2022-10-06T19:22:19.148Z,71.22
2022-10-06T19:24:47.789Z,71.29
2022-10-06T19:27:17.036Z,71.86
2022-10-06T19:29:46.091Z,72.60
2022-10-06T19:32:20.652Z,73.07
2022-10-06T19:34:48.313Z,72.97
2022-10-06T19:37:15.801Z,73.15
2022-10-06T19:39:45.800Z,73.36
2022-10-06T19:42:35.346Z,73.69
2022-10-06T19:45:02.433Z,73.15
2022-10-06T19:47:28.902Z,73.18
2022-10-06T19:50:00.808Z,73.34
2022-10-06T19:52:31.203Z,73.97
2022-10-06T19:54:58.059Z,74.56
2022-10-06T19:57:28.414Z,74.73
2022-10-06T19:59:55.053Z,74.46
2022-10-06T20:02:21.627Z,74.25
2022-10-06T20:04:48.149Z,74.18
2022-10-06T20:07:14.592Z,74.60
2022-10-06T20:09:41.065Z,75.19
2022-10-06T20:12:07.567Z,75.35
2022-10-06T20:14:34.400Z,75.51
2022-10-06T20:17:02.678Z,75.75
2022-10-06T20:19:29.514Z,75.48
2022-10-06T20:21:55.970Z,75.63
2022-10-06T20:24:24.826Z,76.31
2022-10-06T20:26:53.158Z,76.28
2022-10-06T20:29:23.726Z,76.61
2022-10-06T20:31:53.819Z,77.03
2022-10-06T20:34:23.881Z,76.75
2022-10-06T20:36:55.530Z,76.80
2022-10-06T20:39:41.731Z,76.61
2022-10-06T20:42:13.951Z,76.52
2022-10-06T20:44:42.212Z,76.63
2022-10-06T20:47:10.171Z,77.25
2022-10-06T20:49:37.079Z,77.08
2022-10-06T20:52:05.171Z,76.92
2022-10-06T20:54:34.887Z,76.76
2022-10-06T20:57:04.898Z,76.90
2022-10-06T20:59:33.310Z,77.09
2022-10-06T21:02:00.262Z,77.26
2022-10-06T21:04:31.079Z,76.86
2022-10-06T21:06:58.043Z,77.20
2022-10-06T21:09:25.280Z,77.75
2022-10-06T21:11:52.410Z,78.03
2022-10-06T21:14:19.225Z,77.67
2022-10-06T21:16:47.903Z,77.78
2022-10-06T21:19:17.224Z,78.05
2022-10-06T21:21:50.770Z,77.80
2022-10-06T21:24:18.268Z,77.63
2022-10-06T21:26:45.029Z,77.84
2022-10-06T21:29:14.244Z,77.82
2022-10-06T21:31:41.594Z,78.00
2022-10-06T21:34:08.494Z,77.66
2022-10-06T21:36:35.362Z,77.83
2022-10-06T21:39:04.698Z,77.64
2022-10-06T21:41:39.258Z,77.72
2022-10-06T21:44:07.336Z,77.85
2022-10-06T21:46:40.002Z,77.48
2022-10-06T21:49:10.558Z,77.82
2022-10-06T21:51:38.264Z,77.91
2022-10-06T21:54:05.585Z,77.57
2022-10-06T21:56:34.218Z,77.62
2022-10-06T21:59:01.236Z,77.45
2022-10-06T22:01:30.661Z,77.42
2022-10-06T22:03:58.883Z,77.72
2022-10-06T22:06:27.606Z,77.30
2022-10-06T22:08:56.068Z,77.61
2022-10-06T22:11:32.274Z,77.65
2022-10-06T22:14:29.865Z,77.30
2022-10-06T22:16:56.572Z,77.77
2022-10-06T22:19:23.275Z,77.65
2022-10-06T22:21:50.035Z,78.18
2022-10-06T22:24:21.510Z,78.10
2022-10-06T22:26:49.404Z,78.09
2022-10-06T22:29:17.924Z,78.25
2022-10-06T22:31:47.221Z,78.42
2022-10-06T22:34:17.798Z,78.29
2022-10-06T22:36:44.541Z,78.56
2022-10-06T22:39:11.428Z,78.23
2022-10-06T22:41:38.594Z,78.50
2022-10-06T22:44:05.542Z,78.50
2022-10-06T22:46:35.585Z,78.86
2022-10-06T22:49:04.134Z,78.58
2022-10-06T22:51:31.046Z,78.56
2022-10-06T22:53:59.358Z,79.02
2022-10-06T22:56:28.443Z,79.06
2022-10-06T22:58:55.551Z,78.98
2022-10-06T23:01:22.255Z,78.79
2022-10-06T23:03:49.016Z,79.10
2022-10-06T23:06:17.750Z,79.42
2022-10-06T23:08:44.950Z,79.06
2022-10-06T23:11:20.092Z,79.13
2022-10-06T23:13:48.483Z,79.38
2022-10-06T23:16:17.205Z,79.57
2022-10-06T23:18:45.091Z,79.95
2022-10-06T23:21:19.038Z,80.38
2022-10-06T23:23:46.601Z,80.29
2022-10-06T23:26:15.650Z,80.25
2022-10-06T23:28:43.075Z,80.69
2022-10-06T23:31:10.896Z,80.10
2022-10-06T23:33:38.408Z,80.44
2022-10-06T23:36:10.725Z,80.38
2022-10-06T23:38:38.799Z,80.83
2022-10-06T23:41:06.507Z,80.71
2022-10-06T23:43:34.367Z,80.25
2022-10-06T23:46:02.100Z,80.43
2022-10-06T23:48:29.441Z,80.12
2022-10-06T23:51:03.096Z,80.17
2022-10-06T23:53:30.985Z,80.49
2022-10-06T23:55:58.150Z,80.58
2022-10-06T23:58:25.445Z,80.51
